METAR Data
IDs: Format: Raw Decoded Include TAF

Data at: 1714 UTC 03 Jul 2020

METAR for:KEDJ (Bellefontaine Rgnl, OH, US)
Text:KEDJ 031700Z AUTO 36004KT 10SM FEW042 30/13 A3007 RMK AO1
Temperature: 30.0°C ( 86°F)
Dewpoint: 13.0°C ( 55°F) [RH = 35%]
Pressure (altimeter):30.07 inches Hg (1018.4 mb)
Winds:from the N (360 degrees) at 5 MPH (4 knots; 2.1 m/s)
Visibility:10 or more sm (16+ km)
Ceiling:at least 12,000 feet AGL
Clouds: few clouds at 4200 feet AGL
QC Flag:automated observation with no human augmentation